createdAt,value
2019-05-23T00:01:18.868Z,99.90
2019-05-23T00:03:57.088Z,99.90
2019-05-23T00:06:27.951Z,99.90
2019-05-23T00:08:58.814Z,99.90
2019-05-23T00:11:33.138Z,99.90
2019-05-23T00:14:20.582Z,99.90
2019-05-23T00:16:51.870Z,99.90
2019-05-23T00:19:21.913Z,99.90
2019-05-23T00:21:51.914Z,99.90
2019-05-23T00:24:22.316Z,99.90
2019-05-23T00:26:52.740Z,99.90
2019-05-23T00:29:22.233Z,99.90
2019-05-23T00:32:00.147Z,99.90
2019-05-23T00:34:31.320Z,99.90
2019-05-23T00:37:02.404Z,99.90
2019-05-23T00:39:32.227Z,99.90
2019-05-23T00:42:01.886Z,99.90
2019-05-23T00:44:32.090Z,99.90
2019-05-23T00:47:01.394Z,99.90
2019-05-23T00:49:30.712Z,99.90
2019-05-23T00:52:00.224Z,99.90
2019-05-23T00:54:36.972Z,99.90
2019-05-23T00:57:07.516Z,99.90
2019-05-23T00:59:36.771Z,99.90
2019-05-23T01:02:07.737Z,99.90
2019-05-23T01:04:39.765Z,99.90
2019-05-23T01:07:10.308Z,99.90
2019-05-23T01:09:39.818Z,99.90
2019-05-23T01:12:09.213Z,99.90
2019-05-23T01:14:39.392Z,99.90
2019-05-23T01:17:20.593Z,99.90
2019-05-23T01:19:50.897Z,99.90
2019-05-23T01:22:40.902Z,99.90
2019-05-23T01:25:13.393Z,99.90
2019-05-23T01:27:43.213Z,99.90
2019-05-23T01:30:15.587Z,99.90
2019-05-23T01:32:49.875Z,99.90
2019-05-23T01:35:20.192Z,99.90
2019-05-23T01:37:49.738Z,99.90
2019-05-23T01:40:19.953Z,99.90
2019-05-23T01:42:52.348Z,99.90
2019-05-23T01:45:22.791Z,99.90
2019-05-23T01:47:53.418Z,99.90
2019-05-23T01:50:27.222Z,99.90
2019-05-23T01:52:57.768Z,99.90
2019-05-23T01:55:27.324Z,99.90
2019-05-23T01:57:56.682Z,99.90
2019-05-23T02:00:31.356Z,99.90
2019-05-23T02:03:01.080Z,99.90
2019-05-23T02:05:30.910Z,99.90
2019-05-23T02:08:00.950Z,99.90
2019-05-23T02:10:31.105Z,99.90
2019-05-23T02:13:00.963Z,99.90
2019-05-23T02:15:30.190Z,99.90
2019-05-23T02:17:59.459Z,99.90
2019-05-23T02:20:30.030Z,99.90
2019-05-23T02:22:59.624Z,99.90
2019-05-23T02:25:29.182Z,99.90
2019-05-23T02:27:58.468Z,99.90
2019-05-23T02:30:34.715Z,99.90
2019-05-23T02:33:02.788Z,99.90
2019-05-23T02:35:32.224Z,99.90
2019-05-23T02:38:21.001Z,99.90
2019-05-23T02:40:58.074Z,99.90
2019-05-23T02:43:29.160Z,99.90
2019-05-23T02:46:02.921Z,99.90
2019-05-23T02:48:36.867Z,99.90
2019-05-23T02:51:10.688Z,99.90
2019-05-23T02:53:40.714Z,99.90
2019-05-23T02:56:14.694Z,99.90
2019-05-23T02:59:05.664Z,99.90
2019-05-23T03:02:08.321Z,99.90
2019-05-23T03:04:38.701Z,99.90
2019-05-23T03:07:09.674Z,99.90
2019-05-23T03:09:39.874Z,99.90
2019-05-23T03:12:10.994Z,99.90
2019-05-23T03:14:42.168Z,99.90
2019-05-23T03:17:16.614Z,99.90
2019-05-23T03:19:55.834Z,99.90
2019-05-23T03:22:36.666Z,99.90
2019-05-23T03:25:10.468Z,99.90
2019-05-23T03:27:44.869Z,99.90
2019-05-23T03:30:19.375Z,99.90
2019-05-23T03:32:54.394Z,99.90
2019-05-23T03:35:37.801Z,99.90
2019-05-23T03:38:09.259Z,99.90
2019-05-23T03:40:40.126Z,99.90
2019-05-23T03:43:10.005Z,99.90
2019-05-23T03:45:44.103Z,99.90
2019-05-23T03:48:13.764Z,99.90
2019-05-23T03:50:44.409Z,99.90
2019-05-23T03:53:14.923Z,99.90
2019-05-23T03:55:45.838Z,99.90
2019-05-23T03:58:15.139Z,99.90
2019-05-23T04:00:53.312Z,99.90
2019-05-23T04:03:24.273Z,99.90
2019-05-23T04:05:54.613Z,99.90
2019-05-23T04:08:25.072Z,99.90
2019-05-23T04:11:13.885Z,99.90
2019-05-23T04:13:43.585Z,99.90
2019-05-23T04:16:13.334Z,99.90
2019-05-23T04:18:43.394Z,99.90
2019-05-23T04:21:13.089Z,99.90
2019-05-23T04:23:42.452Z,99.90
2019-05-23T04:26:12.856Z,99.90
2019-05-23T04:28:42.345Z,99.90
2019-05-23T04:31:13.267Z,99.90
2019-05-23T04:33:42.785Z,99.90
2019-05-23T04:36:13.267Z,99.90
2019-05-23T04:38:42.624Z,99.90
2019-05-23T04:41:11.918Z,99.90
2019-05-23T04:43:41.220Z,99.90
2019-05-23T04:46:10.570Z,99.90
2019-05-23T04:48:39.892Z,99.90
2019-05-23T04:51:10.681Z,99.90
2019-05-23T04:53:40.069Z,99.90
2019-05-23T04:56:10.320Z,99.90
2019-05-23T04:58:40.532Z,99.90
2019-05-23T05:01:11.035Z,99.90
2019-05-23T05:03:41.904Z,99.90
2019-05-23T05:06:11.270Z,99.90
2019-05-23T05:08:40.848Z,99.90
2019-05-23T05:11:10.263Z,99.90
2019-05-23T05:13:40.174Z,99.90
2019-05-23T05:16:09.827Z,99.90
2019-05-23T05:18:39.487Z,99.90
2019-05-23T05:21:09.055Z,99.90
2019-05-23T05:23:38.692Z,99.90
2019-05-23T05:26:15.505Z,99.90
2019-05-23T05:28:44.817Z,99.90
2019-05-23T05:31:16.045Z,99.90
2019-05-23T05:34:04.614Z,99.90
2019-05-23T05:36:33.838Z,99.90
2019-05-23T05:39:05.076Z,99.90
2019-05-23T05:41:34.555Z,99.90
2019-05-23T05:44:03.845Z,99.90
2019-05-23T05:46:33.810Z,99.90
2019-05-23T05:49:03.304Z,99.90
2019-05-23T05:51:33.065Z,99.90
2019-05-23T05:54:03.100Z,99.90
2019-05-23T05:56:35.089Z,99.90
2019-05-23T05:59:04.507Z,99.90
2019-05-23T06:01:34.703Z,99.90
2019-05-23T06:04:05.442Z,99.90
2019-05-23T06:06:56.850Z,99.90
2019-05-23T06:09:29.502Z,99.90
2019-05-23T06:11:59.059Z,99.90
2019-05-23T06:14:28.874Z,99.90
2019-05-23T06:16:58.582Z,99.90
2019-05-23T06:19:27.953Z,99.90
2019-05-23T06:21:57.559Z,99.90
2019-05-23T06:24:42.657Z,99.90
2019-05-23T06:26:58.937Z,99.90
2019-05-23T06:29:29.095Z,99.90
2019-05-23T06:31:58.967Z,99.90
2019-05-23T06:34:28.807Z,99.90
2019-05-23T06:36:59.232Z,99.90
2019-05-23T06:39:29.215Z,99.90
2019-05-23T06:41:58.481Z,99.90
2019-05-23T06:44:28.208Z,99.90
2019-05-23T06:46:57.543Z,99.90
2019-05-23T06:49:26.931Z,99.90
2019-05-23T06:51:56.342Z,99.90
2019-05-23T06:54:25.918Z,99.90
2019-05-23T06:56:55.373Z,99.00
2019-05-23T06:59:25.073Z,98.50
2019-05-23T07:01:55.224Z,97.40
2019-05-23T07:04:24.758Z,96.40
2019-05-23T07:06:54.521Z,95.60
2019-05-23T07:09:23.910Z,94.30
2019-05-23T07:11:56.935Z,91.90
2019-05-23T07:14:26.526Z,91.40
2019-05-23T07:16:56.005Z,91.50
2019-05-23T07:19:26.205Z,91.00
2019-05-23T07:21:55.923Z,90.80
2019-05-23T07:24:26.252Z,90.80
2019-05-23T07:26:57.909Z,90.20
2019-05-23T07:29:27.395Z,87.00
2019-05-23T07:31:56.968Z,85.70
2019-05-23T07:34:26.590Z,85.40
2019-05-23T07:36:56.964Z,85.70
2019-05-23T07:39:26.568Z,86.00
2019-05-23T07:41:55.780Z,86.40
2019-05-23T07:44:25.566Z,85.90
2019-05-23T07:46:54.961Z,84.70
2019-05-23T07:49:24.405Z,86.50
2019-05-23T07:51:53.848Z,84.90
2019-05-23T07:54:34.645Z,83.80
2019-05-23T07:57:04.869Z,83.70
2019-05-23T07:59:34.429Z,79.40
2019-05-23T08:02:25.498Z,78.00
2019-05-23T08:04:52.255Z,79.90
2019-05-23T08:07:23.442Z,80.20
2019-05-23T08:09:52.944Z,78.30
2019-05-23T08:12:22.246Z,74.60
2019-05-23T08:14:51.788Z,72.60
2019-05-23T08:17:21.729Z,73.10
2019-05-23T08:19:51.084Z,71.50
2019-05-23T08:22:20.600Z,71.10
2019-05-23T08:24:51.434Z,69.40
2019-05-23T08:27:21.240Z,67.10
2019-05-23T08:29:52.408Z,67.60
2019-05-23T08:32:22.236Z,66.50
2019-05-23T08:34:51.777Z,64.70
2019-05-23T08:37:21.453Z,64.80
2019-05-23T08:39:51.522Z,63.80
2019-05-23T08:42:22.447Z,64.90
2019-05-23T08:44:51.989Z,63.00
2019-05-23T08:47:24.409Z,62.70
2019-05-23T08:49:53.714Z,62.10
2019-05-23T08:52:23.411Z,61.90
2019-05-23T08:54:57.341Z,61.90
2019-05-23T08:57:27.077Z,61.30
2019-05-23T08:59:56.667Z,61.30
2019-05-23T09:02:27.554Z,61.60
2019-05-23T09:05:05.373Z,61.10
2019-05-23T09:07:28.990Z,59.70
2019-05-23T09:09:58.982Z,61.60
2019-05-23T09:12:28.288Z,59.60
2019-05-23T09:14:57.790Z,58.30
2019-05-23T09:17:27.549Z,59.20
2019-05-23T09:19:56.842Z,59.50
2019-05-23T09:22:26.458Z,58.40
2019-05-23T09:24:56.129Z,58.10
2019-05-23T09:27:25.495Z,58.60
2019-05-23T09:29:55.153Z,59.60
2019-05-23T09:32:24.468Z,59.80
2019-05-23T09:34:53.769Z,58.30
2019-05-23T09:37:23.673Z,57.80
2019-05-23T09:39:54.072Z,58.80
2019-05-23T09:42:23.526Z,59.20
2019-05-23T09:44:52.997Z,59.30
2019-05-23T09:47:22.319Z,58.60
2019-05-23T09:49:54.353Z,58.30
2019-05-23T09:52:25.064Z,58.30
2019-05-23T09:54:54.612Z,58.60
2019-05-23T09:57:26.321Z,58.60
2019-05-23T09:59:57.046Z,57.40
2019-05-23T10:02:28.150Z,56.70
2019-05-23T10:04:58.008Z,58.00
2019-05-23T10:07:27.664Z,58.40
2019-05-23T10:09:57.000Z,57.40
2019-05-23T10:12:26.356Z,57.30
2019-05-23T10:14:55.713Z,56.60
2019-05-23T10:17:25.164Z,56.50
2019-05-23T10:19:54.504Z,57.00
2019-05-23T10:22:23.719Z,57.10
2019-05-23T10:24:53.162Z,57.20
2019-05-23T10:27:22.491Z,55.80
2019-05-23T10:29:51.899Z,57.30
2019-05-23T10:32:21.804Z,56.50
2019-05-23T10:34:51.333Z,57.60
2019-05-23T10:37:20.990Z,56.40
2019-05-23T10:39:54.578Z,56.50
2019-05-23T10:42:28.080Z,58.70
2019-05-23T10:44:57.422Z,60.10
2019-05-23T10:47:26.897Z,62.10
2019-05-23T10:49:56.346Z,62.60
2019-05-23T10:52:26.117Z,64.00
2019-05-23T10:54:55.439Z,64.60
2019-05-23T10:57:25.156Z,65.10
2019-05-23T10:59:54.799Z,65.20
2019-05-23T11:02:26.967Z,65.40
2019-05-23T11:04:55.885Z,64.60
2019-05-23T11:07:25.515Z,65.60
2019-05-23T11:09:54.951Z,65.80
2019-05-23T11:12:24.266Z,66.60
2019-05-23T11:14:54.039Z,66.90
2019-05-23T11:17:23.546Z,66.70
2019-05-23T11:19:52.988Z,66.00
2019-05-23T11:22:23.035Z,65.40
2019-05-23T11:24:52.492Z,63.50
2019-05-23T11:27:22.566Z,64.50
2019-05-23T11:29:52.064Z,65.10
2019-05-23T11:32:21.717Z,64.70
2019-05-23T11:34:51.034Z,64.30
2019-05-23T11:37:20.759Z,64.20
2019-05-23T11:39:51.125Z,64.50
2019-05-23T11:42:20.766Z,65.10
2019-05-23T11:44:50.148Z,64.50
2019-05-23T11:47:19.554Z,66.80
2019-05-23T11:49:48.970Z,66.30
2019-05-23T11:52:18.889Z,67.20
2019-05-23T11:54:48.856Z,67.50
2019-05-23T11:57:18.429Z,67.30
2019-05-23T11:59:48.108Z,65.90
2019-05-23T12:02:39.960Z,66.00
2019-05-23T12:05:13.377Z,66.20
2019-05-23T12:07:43.259Z,66.10
2019-05-23T12:10:13.574Z,67.30
2019-05-23T12:12:42.841Z,68.50
2019-05-23T12:15:16.848Z,67.80
2019-05-23T12:17:46.400Z,67.30
2019-05-23T12:20:15.844Z,67.10
2019-05-23T12:22:45.597Z,67.40
2019-05-23T12:25:22.585Z,67.40
2019-05-23T12:27:48.356Z,66.00
2019-05-23T12:30:19.274Z,66.20
2019-05-23T12:32:48.731Z,65.20
2019-05-23T12:35:18.115Z,65.20
2019-05-23T12:37:47.474Z,65.40
2019-05-23T12:40:17.493Z,64.30
2019-05-23T12:42:46.859Z,65.30
2019-05-23T12:45:16.697Z,62.60
2019-05-23T12:48:00.540Z,62.20
2019-05-23T12:50:36.812Z,61.60
2019-05-23T12:53:07.331Z,61.00
2019-05-23T12:55:36.551Z,61.60
2019-05-23T12:58:05.928Z,61.90
2019-05-23T13:00:51.287Z,64.10
2019-05-23T13:03:20.804Z,64.40
2019-05-23T13:05:50.668Z,63.10
2019-05-23T13:08:20.111Z,62.60
2019-05-23T13:10:49.777Z,60.40
2019-05-23T13:13:25.368Z,60.60
2019-05-23T13:15:54.835Z,62.40
2019-05-23T13:18:24.843Z,63.90
2019-05-23T13:20:58.740Z,61.60
2019-05-23T13:23:26.629Z,63.20
2019-05-23T13:25:56.127Z,63.50
2019-05-23T13:28:25.616Z,62.00
2019-05-23T13:30:54.876Z,62.30
2019-05-23T13:33:24.433Z,64.00
2019-05-23T13:35:54.089Z,62.40
2019-05-23T13:38:23.558Z,59.70
2019-05-23T13:40:53.042Z,60.90
2019-05-23T13:43:22.811Z,58.50
2019-05-23T13:45:52.185Z,57.30
2019-05-23T13:48:21.484Z,56.70
2019-05-23T13:50:50.804Z,56.90
2019-05-23T13:53:20.300Z,56.70
2019-05-23T13:56:08.669Z,57.40
2019-05-23T13:58:38.646Z,57.50
2019-05-23T14:01:09.472Z,58.40
2019-05-23T14:03:39.204Z,59.80
2019-05-23T14:06:08.741Z,62.00
2019-05-23T14:08:38.975Z,63.00
2019-05-23T14:11:08.474Z,62.30
2019-05-23T14:13:37.969Z,63.00
2019-05-23T14:16:07.577Z,63.60
2019-05-23T14:18:37.744Z,63.20
2019-05-23T14:21:07.244Z,63.20
2019-05-23T14:23:36.490Z,64.10
2019-05-23T14:26:06.738Z,63.90
2019-05-23T14:28:36.001Z,65.00
2019-05-23T14:31:24.468Z,63.30
2019-05-23T14:34:09.558Z,63.70
2019-05-23T14:36:47.064Z,63.40
2019-05-23T14:39:23.605Z,64.10
2019-05-23T14:41:59.003Z,64.10
2019-05-23T14:44:28.379Z,63.90
2019-05-23T14:47:15.819Z,64.70
2019-05-23T14:49:51.748Z,64.00
2019-05-23T14:52:26.996Z,63.30
2019-05-23T14:55:00.499Z,64.20
2019-05-23T14:57:29.885Z,64.90
2019-05-23T14:59:59.476Z,64.00
2019-05-23T15:02:28.993Z,64.20
2019-05-23T15:04:58.378Z,63.30
2019-05-23T15:07:27.790Z,63.60
2019-05-23T15:09:57.295Z,63.70
2019-05-23T15:12:26.775Z,63.40
2019-05-23T15:14:56.101Z,63.60
2019-05-23T15:17:25.722Z,64.20
2019-05-23T15:19:55.223Z,63.70
2019-05-23T15:22:24.851Z,64.20
2019-05-23T15:25:13.286Z,64.50
2019-05-23T15:27:42.655Z,64.60
2019-05-23T15:30:12.739Z,64.20
2019-05-23T15:32:42.101Z,64.50
2019-05-23T15:35:11.457Z,64.80
2019-05-23T15:37:41.159Z,65.10
2019-05-23T15:40:11.922Z,64.30
2019-05-23T15:42:41.325Z,64.10
2019-05-23T15:45:11.158Z,64.90
2019-05-23T15:47:40.523Z,64.00
2019-05-23T15:50:12.186Z,62.00
2019-05-23T15:53:02.378Z,62.80
2019-05-23T15:55:40.233Z,63.20
2019-05-23T15:58:22.049Z,63.30
2019-05-23T16:00:55.978Z,63.70
2019-05-23T16:03:50.512Z,63.30
2019-05-23T16:06:21.643Z,64.10
2019-05-23T16:08:51.460Z,63.20
2019-05-23T16:11:21.347Z,62.90
2019-05-23T16:13:50.867Z,59.70
2019-05-23T16:16:22.611Z,60.50
2019-05-23T16:18:51.923Z,60.20
2019-05-23T16:21:21.492Z,58.20
2019-05-23T16:23:50.868Z,57.70
2019-05-23T16:26:20.178Z,57.10
2019-05-23T16:28:49.822Z,57.30
2019-05-23T16:31:19.593Z,57.60
2019-05-23T16:33:49.196Z,57.00
2019-05-23T16:36:18.950Z,56.40
2019-05-23T16:38:48.392Z,56.30
2019-05-23T16:41:17.740Z,56.40
2019-05-23T16:43:47.047Z,56.40
2019-05-23T16:46:16.533Z,55.80
2019-05-23T16:48:45.857Z,56.90
2019-05-23T16:51:15.136Z,57.70
2019-05-23T16:53:44.788Z,58.00
2019-05-23T16:56:25.581Z,58.30
2019-05-23T16:59:09.522Z,58.60
2019-05-23T17:02:09.852Z,59.30
2019-05-23T17:05:11.011Z,59.10
2019-05-23T17:08:08.658Z,58.10
2019-05-23T17:10:58.129Z,58.30
2019-05-23T17:13:34.558Z,59.30
2019-05-23T17:16:11.810Z,60.00
2019-05-23T17:18:55.945Z,61.10
2019-05-23T17:21:56.538Z,61.80
2019-05-23T17:24:31.820Z,62.00
2019-05-23T17:27:06.319Z,62.50
2019-05-23T17:29:44.868Z,63.90
2019-05-23T17:32:17.503Z,64.50
2019-05-23T17:34:46.850Z,66.10
2019-05-23T17:37:16.497Z,68.00
2019-05-23T17:39:45.871Z,68.20
2019-05-23T17:42:15.314Z,68.70
2019-05-23T17:44:44.655Z,68.80
2019-05-23T17:47:14.071Z,70.30
2019-05-23T17:49:43.629Z,70.30
2019-05-23T17:52:13.831Z,71.00
2019-05-23T17:54:43.303Z,71.90
2019-05-23T17:57:13.462Z,71.10
2019-05-23T17:59:42.880Z,71.60
2019-05-23T18:02:12.955Z,71.90
2019-05-23T18:04:42.404Z,72.40
2019-05-23T18:07:13.025Z,72.30
2019-05-23T18:09:43.265Z,72.80
2019-05-23T18:12:12.758Z,73.30
2019-05-23T18:14:42.977Z,73.70
2019-05-23T18:17:12.708Z,73.10
2019-05-23T18:19:42.545Z,73.70
2019-05-23T18:22:14.073Z,74.00
2019-05-23T18:24:43.570Z,74.00
2019-05-23T18:27:13.770Z,74.50
2019-05-23T18:29:43.945Z,75.00
2019-05-23T18:32:21.130Z,75.30
2019-05-23T18:34:57.253Z,75.90
2019-05-23T18:37:26.796Z,76.10
2019-05-23T18:39:56.077Z,76.80
2019-05-23T18:42:26.497Z,77.00
2019-05-23T18:44:56.735Z,77.00
2019-05-23T18:47:31.726Z,77.80
2019-05-23T18:50:01.466Z,77.60
2019-05-23T18:52:30.950Z,78.20
2019-05-23T18:55:00.453Z,78.40
2019-05-23T18:57:30.516Z,78.60
2019-05-23T18:59:59.844Z,78.80
2019-05-23T19:02:30.050Z,79.30
2019-05-23T19:04:59.710Z,79.30
2019-05-23T19:07:29.117Z,79.40
2019-05-23T19:09:58.544Z,80.70
2019-05-23T19:12:28.317Z,80.20
2019-05-23T19:14:57.605Z,81.10
2019-05-23T19:17:45.974Z,80.80
2019-05-23T19:20:15.942Z,81.10
2019-05-23T19:22:45.291Z,81.90
2019-05-23T19:25:16.389Z,83.00
2019-05-23T19:27:46.232Z,83.40
2019-05-23T19:30:15.687Z,83.40
2019-05-23T19:32:46.795Z,84.90
2019-05-23T19:35:16.124Z,84.10
2019-05-23T19:37:45.414Z,84.70
2019-05-23T19:40:15.427Z,85.20
2019-05-23T19:42:44.672Z,86.50
2019-05-23T19:45:14.095Z,86.60
2019-05-23T19:47:43.575Z,86.40
2019-05-23T19:50:12.965Z,87.90
2019-05-23T19:52:42.935Z,87.70
2019-05-23T19:55:12.201Z,87.50
2019-05-23T19:57:42.307Z,88.40
2019-05-23T20:00:15.183Z,88.60
2019-05-23T20:02:55.253Z,88.90
2019-05-23T20:05:29.372Z,89.70
2019-05-23T20:07:58.732Z,89.30
2019-05-23T20:10:28.935Z,89.70
2019-05-23T20:12:58.311Z,90.10
2019-05-23T20:15:28.175Z,90.50
2019-05-23T20:17:57.469Z,90.70
2019-05-23T20:20:28.379Z,91.10
2019-05-23T20:22:57.768Z,91.40
2019-05-23T20:25:27.998Z,91.70
2019-05-23T20:27:57.364Z,91.90
2019-05-23T20:31:00.335Z,92.10
2019-05-23T20:33:30.488Z,92.40
2019-05-23T20:36:00.423Z,92.80
2019-05-23T20:38:30.234Z,93.20
2019-05-23T20:40:59.630Z,93.50
2019-05-23T20:43:29.150Z,93.80
2019-05-23T20:45:58.398Z,94.10
2019-05-23T20:48:28.607Z,94.50
2019-05-23T20:50:58.006Z,94.90
2019-05-23T20:53:27.235Z,95.10
2019-05-23T20:55:56.472Z,95.40
2019-05-23T20:58:25.773Z,95.50
2019-05-23T21:01:16.001Z,95.80
2019-05-23T21:03:45.387Z,96.10
2019-05-23T21:06:15.468Z,96.40
2019-05-23T21:08:45.048Z,96.80
2019-05-23T21:11:14.321Z,96.90
2019-05-23T21:13:43.723Z,97.00
2019-05-23T21:16:12.986Z,97.30
2019-05-23T21:18:42.441Z,97.60
2019-05-23T21:21:12.118Z,98.10
2019-05-23T21:23:41.477Z,98.00
2019-05-23T21:26:10.854Z,98.50
2019-05-23T21:28:40.478Z,99.10
2019-05-23T21:31:19.461Z,99.20
2019-05-23T21:33:48.747Z,99.50
2019-05-23T21:36:18.137Z,99.70
2019-05-23T21:38:47.797Z,99.80
2019-05-23T21:41:17.073Z,99.90
2019-05-23T21:43:48.316Z,99.90
2019-05-23T21:46:17.643Z,99.90
2019-05-23T21:48:47.036Z,99.90
2019-05-23T21:51:16.336Z,99.90
2019-05-23T21:53:45.681Z,99.90
2019-05-23T21:56:15.021Z,99.90
2019-05-23T21:58:51.641Z,99.90
2019-05-23T22:01:38.904Z,99.90
2019-05-23T22:04:27.330Z,99.90
2019-05-23T22:07:07.709Z,99.90
2019-05-23T22:09:37.103Z,99.90
2019-05-23T22:12:09.077Z,99.90
2019-05-23T22:14:38.611Z,99.90
2019-05-23T22:17:07.917Z,99.90
2019-05-23T22:19:37.203Z,99.90
2019-05-23T22:22:06.923Z,99.90
2019-05-23T22:24:36.302Z,99.90
2019-05-23T22:27:08.978Z,99.90
2019-05-23T22:29:38.299Z,99.90
2019-05-23T22:32:09.254Z,99.90
2019-05-23T22:34:50.059Z,99.90
2019-05-23T22:37:26.482Z,99.90
2019-05-23T22:39:55.835Z,99.90
2019-05-23T22:42:26.701Z,99.90
2019-05-23T22:44:56.018Z,99.90
2019-05-23T22:47:25.907Z,99.90
2019-05-23T22:49:55.148Z,99.90
2019-05-23T22:52:24.655Z,99.90
2019-05-23T22:54:53.948Z,99.90
2019-05-23T22:57:23.261Z,99.90
2019-05-23T22:59:52.583Z,99.90
2019-05-23T23:02:21.986Z,99.90
2019-05-23T23:04:51.289Z,99.90
2019-05-23T23:07:20.625Z,99.90
2019-05-23T23:09:49.887Z,99.90
2019-05-23T23:12:19.758Z,99.90
2019-05-23T23:14:49.154Z,99.90
2019-05-23T23:17:19.543Z,99.90
2019-05-23T23:19:48.827Z,99.90
2019-05-23T23:22:18.176Z,99.90
2019-05-23T23:24:47.573Z,99.90
2019-05-23T23:27:16.843Z,99.90
2019-05-23T23:29:46.158Z,99.90
2019-05-23T23:32:15.696Z,99.90
2019-05-23T23:34:44.988Z,99.90
2019-05-23T23:37:14.300Z,99.90
2019-05-23T23:39:43.706Z,99.90
2019-05-23T23:42:13.033Z,99.90
2019-05-23T23:44:41.395Z,99.90
2019-05-23T23:47:28.350Z,99.90
2019-05-23T23:50:15.466Z,99.90
2019-05-23T23:53:02.324Z,99.90
2019-05-23T23:55:49.614Z,99.90
2019-05-23T23:58:18.236Z,99.90
